createdAt,value
2018-09-01T00:00:30.760Z,99.90
2018-09-01T00:01:35.209Z,99.90
2018-09-01T00:02:38.966Z,99.90
2018-09-01T00:03:42.549Z,99.90
2018-09-01T00:04:46.152Z,99.90
2018-09-01T00:05:49.784Z,99.90
2018-09-01T00:06:53.523Z,99.90
2018-09-01T00:07:57.184Z,99.90
2018-09-01T00:09:01.014Z,99.90
2018-09-01T00:10:04.761Z,99.90
2018-09-01T00:11:08.352Z,99.90
2018-09-01T00:12:12.057Z,99.90
2018-09-01T00:13:15.757Z,99.90
2018-09-01T00:14:19.424Z,99.90
2018-09-01T00:15:23.254Z,99.90
2018-09-01T00:16:27.041Z,99.90
2018-09-01T00:17:32.039Z,99.90
2018-09-01T00:18:35.825Z,99.90
2018-09-01T00:19:39.493Z,99.90
2018-09-01T00:20:43.049Z,99.90
2018-09-01T00:21:46.534Z,99.90
2018-09-01T00:22:50.278Z,99.90
2018-09-01T00:23:53.882Z,99.90
2018-09-01T00:24:57.557Z,99.90
2018-09-01T00:26:01.027Z,99.90
2018-09-01T00:27:04.535Z,99.90
2018-09-01T00:28:08.044Z,99.90
2018-09-01T00:29:11.703Z,99.90
2018-09-01T00:30:15.139Z,99.90
2018-09-01T00:31:18.644Z,99.90
2018-09-01T00:32:22.269Z,99.90
2018-09-01T00:33:25.769Z,99.90
2018-09-01T00:34:29.230Z,99.90
2018-09-01T00:35:32.757Z,99.90
2018-09-01T00:36:36.246Z,99.90
2018-09-01T00:37:44.880Z,99.90
2018-09-01T00:39:07.350Z,99.90
2018-09-01T00:40:10.932Z,99.90
2018-09-01T00:41:14.423Z,99.90
2018-09-01T00:42:17.887Z,99.90
2018-09-01T00:43:21.430Z,99.90
2018-09-01T00:44:24.898Z,99.90
2018-09-01T00:45:28.993Z,99.90
2018-09-01T00:46:33.307Z,99.90
2018-09-01T00:47:36.878Z,99.90
2018-09-01T00:48:40.313Z,99.90
2018-09-01T00:49:43.953Z,99.90
2018-09-01T00:50:47.429Z,99.90
2018-09-01T00:51:50.917Z,99.90
2018-09-01T00:52:54.415Z,99.90
2018-09-01T00:53:57.880Z,99.90
2018-09-01T00:55:01.343Z,99.90
2018-09-01T00:56:04.926Z,99.90
2018-09-01T00:57:08.440Z,99.90
2018-09-01T00:58:12.038Z,99.90
2018-09-01T00:59:15.504Z,99.90
2018-09-01T01:00:19.034Z,99.90
2018-09-01T01:01:22.612Z,99.90
2018-09-01T01:02:26.134Z,99.90
2018-09-01T01:03:29.647Z,99.90
2018-09-01T01:04:33.329Z,99.90
2018-09-01T01:05:36.804Z,99.90
2018-09-01T01:06:40.337Z,99.90
2018-09-01T01:07:43.934Z,99.90
2018-09-01T01:08:47.384Z,99.90
2018-09-01T01:09:50.968Z,99.90
2018-09-01T01:10:54.592Z,99.90
2018-09-01T01:11:58.112Z,99.90
2018-09-01T01:13:01.666Z,99.90
2018-09-01T01:14:05.147Z,99.90
2018-09-01T01:15:09.364Z,99.90
2018-09-01T01:16:12.917Z,99.90
2018-09-01T01:17:16.440Z,99.90
2018-09-01T01:18:19.924Z,99.90
2018-09-01T01:19:23.517Z,99.90
2018-09-01T01:20:27.002Z,99.90
2018-09-01T01:21:30.551Z,99.90
2018-09-01T01:22:34.085Z,99.90
2018-09-01T01:23:37.575Z,99.90
2018-09-01T01:24:41.070Z,99.90
2018-09-01T01:25:44.556Z,99.90
2018-09-01T01:26:52.358Z,99.90
2018-09-01T01:27:55.939Z,99.90
2018-09-01T01:28:59.452Z,99.90
2018-09-01T01:30:03.336Z,99.90
2018-09-01T01:31:07.169Z,99.90
2018-09-01T01:32:10.652Z,99.90
2018-09-01T01:33:14.773Z,99.90
2018-09-01T01:34:18.250Z,99.90
2018-09-01T01:37:18.303Z,99.90
2018-09-01T01:39:58.337Z,99.90
2018-09-01T01:41:13.590Z,99.90
2018-09-01T01:42:29.179Z,99.90
2018-09-01T01:43:39.180Z,99.90
2018-09-01T01:44:47.216Z,99.90
2018-09-01T01:45:52.507Z,99.90
2018-09-01T01:47:03.635Z,99.90
2018-09-01T01:48:13.060Z,99.90
2018-09-01T01:49:26.186Z,99.90
2018-09-01T01:50:37.152Z,99.90
2018-09-01T01:51:43.812Z,99.90
2018-09-01T01:52:49.895Z,99.90
2018-09-01T01:53:55.441Z,99.90
2018-09-01T01:54:59.258Z,99.90
2018-09-01T01:56:02.821Z,99.90
2018-09-01T01:57:06.391Z,99.90
2018-09-01T01:58:10.253Z,99.90
2018-09-01T01:59:13.839Z,99.90
2018-09-01T02:00:17.467Z,99.90
2018-09-01T02:01:21.059Z,99.90
2018-09-01T02:02:24.715Z,99.90
2018-09-01T02:03:28.536Z,99.90
2018-09-01T02:04:32.902Z,99.90
2018-09-01T02:05:36.682Z,99.90
2018-09-01T02:06:40.299Z,99.90
2018-09-01T02:07:43.907Z,99.90
2018-09-01T02:08:47.520Z,99.90
2018-09-01T02:09:51.095Z,99.90
2018-09-01T02:10:55.157Z,99.90
2018-09-01T02:11:58.747Z,99.90
2018-09-01T02:13:02.327Z,99.90
2018-09-01T02:14:06.248Z,99.90
2018-09-01T02:15:10.026Z,99.90
2018-09-01T02:16:13.640Z,99.90
2018-09-01T02:17:17.235Z,99.90
2018-09-01T02:18:20.961Z,99.90
2018-09-01T02:19:24.518Z,99.90
2018-09-01T02:20:28.092Z,99.90
2018-09-01T02:21:31.860Z,99.90
2018-09-01T02:22:35.474Z,99.90
2018-09-01T02:23:39.043Z,99.90
2018-09-01T02:24:42.655Z,99.90
2018-09-01T02:25:46.337Z,99.90
2018-09-01T02:26:49.933Z,99.90
2018-09-01T02:27:53.670Z,99.90
2018-09-01T02:28:57.639Z,99.90
2018-09-01T02:30:01.248Z,99.90
2018-09-01T02:31:04.919Z,99.90
2018-09-01T02:32:08.554Z,99.90
2018-09-01T02:33:12.375Z,99.90
2018-09-01T02:34:15.940Z,99.90
2018-09-01T02:35:19.662Z,99.90
2018-09-01T02:36:23.535Z,99.90
2018-09-01T02:37:27.386Z,99.90
2018-09-01T02:38:31.182Z,99.90
2018-09-01T02:39:34.823Z,99.90
2018-09-01T02:40:38.411Z,99.90
2018-09-01T02:41:42.004Z,99.90
2018-09-01T02:42:45.613Z,99.90
2018-09-01T02:43:49.217Z,99.90
2018-09-01T02:44:52.835Z,99.90
2018-09-01T02:45:56.413Z,99.90
2018-09-01T02:46:59.986Z,99.90
2018-09-01T02:48:03.608Z,99.90
2018-09-01T02:49:07.199Z,99.90
2018-09-01T02:50:10.903Z,99.90
2018-09-01T02:51:16.190Z,99.90
2018-09-01T02:52:19.850Z,99.90
2018-09-01T02:53:23.414Z,99.90
2018-09-01T02:54:27.183Z,99.90
2018-09-01T02:55:30.765Z,99.90
2018-09-01T02:56:34.506Z,99.90
2018-09-01T02:57:38.119Z,99.90
2018-09-01T02:58:42.316Z,99.90
2018-09-01T02:59:45.978Z,99.90
2018-09-01T03:00:54.812Z,99.90
2018-09-01T03:01:58.373Z,99.90
2018-09-01T03:03:02.583Z,99.90
2018-09-01T03:04:07.489Z,99.90
2018-09-01T03:05:11.440Z,99.90
2018-09-01T03:06:14.997Z,99.90
2018-09-01T03:07:18.694Z,99.90
2018-09-01T03:08:22.304Z,99.90
2018-09-01T03:09:26.118Z,99.90
2018-09-01T03:10:29.747Z,99.90
2018-09-01T03:11:33.405Z,99.90
2018-09-01T03:12:37.121Z,99.90
2018-09-01T03:13:40.809Z,99.90
2018-09-01T03:14:44.729Z,99.90
2018-09-01T03:15:48.330Z,99.90
2018-09-01T03:16:52.716Z,99.90
2018-09-01T03:17:56.391Z,99.90
2018-09-01T03:19:00.110Z,99.90
2018-09-01T03:20:03.801Z,99.90
2018-09-01T03:21:07.403Z,99.90
2018-09-01T03:22:11.007Z,99.90
2018-09-01T03:23:14.740Z,99.90
2018-09-01T03:24:18.374Z,99.90
2018-09-01T03:25:21.953Z,99.90
2018-09-01T03:26:25.681Z,99.90
2018-09-01T03:27:29.266Z,99.90
2018-09-01T03:28:33.183Z,99.90
2018-09-01T03:29:36.917Z,99.90
2018-09-01T03:30:40.550Z,99.90
2018-09-01T03:31:44.226Z,99.90
2018-09-01T03:32:47.932Z,99.90
2018-09-01T03:33:51.736Z,99.90
2018-09-01T03:34:55.314Z,99.90
2018-09-01T03:35:58.934Z,99.90
2018-09-01T03:37:02.578Z,99.90
2018-09-01T03:38:06.186Z,99.90
2018-09-01T03:39:09.805Z,99.90
2018-09-01T03:40:13.388Z,99.90
2018-09-01T03:41:16.936Z,99.90
2018-09-01T03:42:21.056Z,99.90
2018-09-01T03:43:25.353Z,99.90
2018-09-01T03:44:28.943Z,99.90
2018-09-01T03:45:32.513Z,99.90
2018-09-01T03:46:36.112Z,99.90
2018-09-01T03:47:39.964Z,99.90
2018-09-01T03:48:43.571Z,99.90
2018-09-01T03:49:47.603Z,99.90
2018-09-01T03:50:51.424Z,99.90
2018-09-01T03:51:54.975Z,99.90
2018-09-01T03:52:58.643Z,99.90
2018-09-01T03:54:02.426Z,99.90
2018-09-01T03:55:06.326Z,99.90
2018-09-01T03:56:10.976Z,99.90
2018-09-01T03:57:15.308Z,99.90
2018-09-01T03:58:18.944Z,99.90
2018-09-01T03:59:22.725Z,99.90
2018-09-01T04:00:28.607Z,99.90
2018-09-01T04:01:32.165Z,99.90
2018-09-01T04:02:36.298Z,99.90
2018-09-01T04:03:39.976Z,99.90
2018-09-01T04:04:43.606Z,99.90
2018-09-01T04:05:47.320Z,99.90
2018-09-01T04:06:50.990Z,99.90
2018-09-01T04:07:54.657Z,99.90
2018-09-01T04:08:58.382Z,99.90
2018-09-01T04:10:02.202Z,99.90
2018-09-01T04:11:05.822Z,99.90
2018-09-01T04:12:09.560Z,99.90
2018-09-01T04:13:13.386Z,99.90
2018-09-01T04:14:16.977Z,99.90
2018-09-01T04:15:20.565Z,99.90
2018-09-01T04:16:24.149Z,99.90
2018-09-01T04:17:27.825Z,99.90
2018-09-01T04:18:31.598Z,99.90
2018-09-01T04:19:52.980Z,99.90
2018-09-01T04:22:35.131Z,99.90
2018-09-01T04:24:03.212Z,99.90
2018-09-01T04:26:47.074Z,99.90
2018-09-01T04:27:52.335Z,99.90
2018-09-01T04:28:55.960Z,99.90
2018-09-01T04:29:59.613Z,99.90
2018-09-01T04:31:03.195Z,99.90
2018-09-01T04:32:15.390Z,99.90
2018-09-01T04:33:35.969Z,99.90
2018-09-01T04:34:42.034Z,99.90
2018-09-01T04:35:45.761Z,99.90
2018-09-01T04:36:49.266Z,99.90
2018-09-01T04:37:53.135Z,99.90
2018-09-01T04:38:56.946Z,99.90
2018-09-01T04:40:01.053Z,99.90
2018-09-01T04:41:05.073Z,99.90
2018-09-01T04:42:08.588Z,99.90
2018-09-01T04:43:12.650Z,99.90
2018-09-01T04:44:16.098Z,99.90
2018-09-01T04:45:19.627Z,99.90
2018-09-01T04:46:23.093Z,99.90
2018-09-01T04:47:26.597Z,99.90
2018-09-01T04:48:30.141Z,99.90
2018-09-01T04:49:33.707Z,99.90
2018-09-01T04:50:37.276Z,99.90
2018-09-01T04:51:40.799Z,99.90
2018-09-01T04:52:44.521Z,99.90
2018-09-01T04:53:48.058Z,99.90
2018-09-01T04:54:51.610Z,99.90
2018-09-01T04:55:55.163Z,99.90
2018-09-01T04:56:58.674Z,99.90
2018-09-01T04:58:02.171Z,99.90
2018-09-01T04:59:05.731Z,99.90
2018-09-01T05:00:09.389Z,99.90
2018-09-01T05:01:14.003Z,99.90
2018-09-01T05:02:17.424Z,99.90
2018-09-01T05:03:20.924Z,99.90
2018-09-01T05:04:24.460Z,99.90
2018-09-01T05:05:27.986Z,99.90
2018-09-01T05:06:31.520Z,99.90
2018-09-01T05:07:35.083Z,99.90
2018-09-01T05:08:38.574Z,99.90
2018-09-01T05:09:42.063Z,99.90
2018-09-01T05:10:45.635Z,99.90
2018-09-01T05:11:49.145Z,99.90
2018-09-01T05:12:52.641Z,99.90
2018-09-01T05:13:56.186Z,99.90
2018-09-01T05:14:59.707Z,99.90
2018-09-01T05:16:03.230Z,99.90
2018-09-01T05:17:07.002Z,99.90
2018-09-01T05:18:10.618Z,99.90
2018-09-01T05:19:14.202Z,99.90
2018-09-01T05:20:17.770Z,99.90
2018-09-01T05:21:21.287Z,99.90
2018-09-01T05:22:24.847Z,99.90
2018-09-01T05:23:28.445Z,99.90
2018-09-01T05:24:31.950Z,99.90
2018-09-01T05:25:35.526Z,99.90
2018-09-01T05:26:39.031Z,99.90
2018-09-01T05:27:42.763Z,99.90
2018-09-01T05:28:46.513Z,99.90
2018-09-01T05:29:50.193Z,99.90
2018-09-01T05:30:53.766Z,99.90
2018-09-01T05:31:57.342Z,99.90
2018-09-01T05:33:01.060Z,99.90
2018-09-01T05:34:04.713Z,99.90
2018-09-01T05:35:08.325Z,99.90
2018-09-01T05:36:12.372Z,99.90
2018-09-01T05:37:15.973Z,99.90
2018-09-01T05:38:19.567Z,99.90
2018-09-01T05:39:23.150Z,99.90
2018-09-01T05:40:26.882Z,99.90
2018-09-01T05:41:30.722Z,99.90
2018-09-01T05:42:34.243Z,99.90
2018-09-01T05:43:37.849Z,99.90
2018-09-01T05:44:41.396Z,99.90
2018-09-01T05:45:45.007Z,99.90
2018-09-01T05:46:48.579Z,99.90
2018-09-01T05:47:52.123Z,99.90
2018-09-01T05:48:55.613Z,99.90
2018-09-01T05:49:59.162Z,99.90
2018-09-01T05:51:02.831Z,99.90
2018-09-01T05:52:06.399Z,99.90
2018-09-01T05:53:09.951Z,99.90
2018-09-01T05:54:13.863Z,99.90
2018-09-01T05:55:17.462Z,99.90
2018-09-01T05:56:21.015Z,99.90
2018-09-01T05:57:25.462Z,99.90
2018-09-01T05:58:32.162Z,99.90
2018-09-01T05:59:36.106Z,99.90
2018-09-01T06:00:46.285Z,99.90
2018-09-01T06:01:50.136Z,99.90
2018-09-01T06:02:54.212Z,99.90
2018-09-01T06:03:57.810Z,99.90
2018-09-01T06:05:01.396Z,99.90
2018-09-01T06:06:05.237Z,99.90
2018-09-01T06:07:09.832Z,99.90
2018-09-01T06:08:15.225Z,99.90
2018-09-01T06:09:19.030Z,99.90
2018-09-01T06:10:22.873Z,99.90
2018-09-01T06:11:27.090Z,99.90
2018-09-01T06:12:31.011Z,99.90
2018-09-01T06:13:34.763Z,99.90
2018-09-01T06:14:38.741Z,99.90
2018-09-01T06:15:42.790Z,99.90
2018-09-01T06:16:46.386Z,99.90
2018-09-01T06:17:50.046Z,99.90
2018-09-01T06:18:53.591Z,99.90
2018-09-01T06:19:57.281Z,99.80
2018-09-01T06:21:01.249Z,99.70
2018-09-01T06:22:05.091Z,99.40
2018-09-01T06:23:08.652Z,99.20
2018-09-01T06:24:12.871Z,98.50
2018-09-01T06:25:17.002Z,98.00
2018-09-01T06:26:20.975Z,97.70
2018-09-01T06:27:28.288Z,97.20
2018-09-01T06:28:36.098Z,96.70
2018-09-01T06:29:40.224Z,96.40
2018-09-01T06:30:46.658Z,95.70
2018-09-01T06:31:55.079Z,95.40
2018-09-01T06:32:59.143Z,94.70
2018-09-01T06:34:03.199Z,94.60
2018-09-01T06:35:07.431Z,93.60
2018-09-01T06:36:11.215Z,93.90
2018-09-01T06:37:15.027Z,93.90
2018-09-01T06:38:18.718Z,93.30
2018-09-01T06:39:22.559Z,93.10
2018-09-01T06:40:26.205Z,92.30
2018-09-01T06:41:30.269Z,92.10
2018-09-01T06:42:33.930Z,91.70
2018-09-01T06:43:37.653Z,92.20
2018-09-01T06:44:41.742Z,92.50
2018-09-01T06:45:45.759Z,92.10
2018-09-01T06:46:50.625Z,91.90
2018-09-01T06:47:56.110Z,91.90
2018-09-01T06:49:00.913Z,91.80
2018-09-01T06:50:05.517Z,91.80
2018-09-01T07:02:46.003Z,91.40
2018-09-01T07:03:49.779Z,90.20
2018-09-01T07:04:53.534Z,90.00
2018-09-01T07:05:57.331Z,90.40
2018-09-01T07:07:01.108Z,90.40
2018-09-01T07:08:05.988Z,89.80
2018-09-01T07:09:09.920Z,89.10
2018-09-01T07:10:13.899Z,89.10
2018-09-01T07:11:18.683Z,88.40
2018-09-01T07:14:02.613Z,87.10
2018-09-01T07:15:06.390Z,87.40
2018-09-01T07:16:10.295Z,86.90
2018-09-01T07:20:10.909Z,86.90
2018-09-01T07:21:14.941Z,86.90
2018-09-01T07:22:21.337Z,87.10
2018-09-01T07:23:29.516Z,85.80
2018-09-01T07:24:40.748Z,84.30
2018-09-01T07:25:44.718Z,83.70
2018-09-01T07:26:54.572Z,84.30
2018-09-01T07:27:59.044Z,85.70
2018-09-01T07:29:03.047Z,86.40
2018-09-01T07:30:15.049Z,86.20
2018-09-01T07:31:24.016Z,86.70
2018-09-01T07:32:33.644Z,85.20
2018-09-01T07:33:37.453Z,84.30
2018-09-01T07:34:41.158Z,83.60
2018-09-01T07:35:44.812Z,82.80
2018-09-01T07:36:48.462Z,82.90
2018-09-01T07:37:52.152Z,82.70
2018-09-01T07:38:55.859Z,82.40
2018-09-01T07:39:59.510Z,83.20
2018-09-01T07:41:03.150Z,82.40
2018-09-01T07:42:07.144Z,82.40
2018-09-01T07:43:11.169Z,80.30
2018-09-01T07:44:14.974Z,81.50
2018-09-01T07:45:20.070Z,82.80
2018-09-01T07:46:23.745Z,83.60
2018-09-01T07:47:27.567Z,82.50
2018-09-01T07:48:31.567Z,82.90
2018-09-01T07:49:35.210Z,82.00
2018-09-01T07:50:38.866Z,82.70
2018-09-01T07:51:42.543Z,83.50
2018-09-01T07:52:46.183Z,83.60
2018-09-01T07:53:49.924Z,83.30
2018-09-01T07:54:53.583Z,81.30
2018-09-01T07:55:57.728Z,82.10
2018-09-01T07:57:01.938Z,83.20
2018-09-01T07:58:05.688Z,84.10
2018-09-01T08:08:56.813Z,83.10
2018-09-01T08:10:00.933Z,82.80
2018-09-01T08:11:05.720Z,82.00
2018-09-01T08:12:09.519Z,80.60
2018-09-01T08:13:13.295Z,81.20
2018-09-01T08:14:17.020Z,80.30
2018-09-01T08:15:20.761Z,79.70
2018-09-01T08:16:24.480Z,80.80
2018-09-01T08:17:28.562Z,81.00
2018-09-01T08:18:32.670Z,82.20
2018-09-01T08:19:36.310Z,82.00
2018-09-01T08:20:40.124Z,82.80
2018-09-01T08:21:43.993Z,80.80
2018-09-01T08:22:47.781Z,82.70
2018-09-01T08:23:51.504Z,82.10
2018-09-01T08:24:55.300Z,82.20
2018-09-01T08:25:59.105Z,83.50
2018-09-01T08:27:02.782Z,85.20
2018-09-01T08:28:06.554Z,85.10
2018-09-01T08:29:10.337Z,85.50
2018-09-01T08:30:14.245Z,85.80
2018-09-01T08:31:17.905Z,86.00
2018-09-01T08:32:21.677Z,85.50
2018-09-01T08:33:25.367Z,84.60
2018-09-01T08:34:30.273Z,85.00
2018-09-01T08:35:34.388Z,85.60
2018-09-01T08:36:38.070Z,86.90
2018-09-01T08:37:41.809Z,87.20
2018-09-01T08:38:45.438Z,87.10
2018-09-01T08:39:49.142Z,87.40
2018-09-01T08:40:53.372Z,88.00
2018-09-01T08:41:57.127Z,90.00
2018-09-01T08:43:00.803Z,90.40
2018-09-01T08:44:04.790Z,89.30
2018-09-01T08:45:08.554Z,89.40
2018-09-01T08:46:12.516Z,89.10
2018-09-01T08:47:16.356Z,89.10
2018-09-01T08:48:20.012Z,85.00
2018-09-01T08:49:23.738Z,86.70
2018-09-01T08:50:27.412Z,86.60
2018-09-01T08:51:31.185Z,87.80
2018-09-01T08:52:34.995Z,89.20
2018-09-01T08:53:38.863Z,89.30
2018-09-01T08:54:42.539Z,88.40
2018-09-01T08:55:46.196Z,90.20
2018-09-01T08:56:57.319Z,88.20
2018-09-01T08:58:01.282Z,88.90
2018-09-01T08:59:05.236Z,90.20
2018-09-01T09:00:08.922Z,90.50
2018-09-01T09:01:13.071Z,91.00
2018-09-01T09:02:16.813Z,90.70
2018-09-01T09:03:20.515Z,90.80
2018-09-01T09:04:24.737Z,90.90
2018-09-01T09:05:28.425Z,90.20
2018-09-01T09:06:32.315Z,90.00
2018-09-01T09:07:36.077Z,89.30
2018-09-01T09:08:39.991Z,90.00
2018-09-01T09:09:43.670Z,87.20
2018-09-01T09:10:47.482Z,85.20
2018-09-01T09:11:51.337Z,85.60
2018-09-01T09:12:55.504Z,86.90
2018-09-01T09:13:59.261Z,87.50
2018-09-01T09:15:02.886Z,87.80
2018-09-01T09:16:06.997Z,87.40
2018-09-01T09:17:11.036Z,88.00
2018-09-01T09:18:14.875Z,87.40
2018-09-01T09:19:19.667Z,88.20
2018-09-01T09:20:23.581Z,89.60
2018-09-01T09:21:27.302Z,90.30
2018-09-01T09:22:31.084Z,90.30
2018-09-01T09:23:34.823Z,90.00
2018-09-01T09:24:39.424Z,89.20
2018-09-01T09:25:43.304Z,89.60
2018-09-01T09:26:47.327Z,88.90
2018-09-01T09:27:51.713Z,85.70
2018-09-01T09:28:55.344Z,86.00
2018-09-01T09:29:59.434Z,84.50
2018-09-01T09:31:03.192Z,84.60
2018-09-01T09:32:07.180Z,84.40
2018-09-01T09:33:11.015Z,82.40
2018-09-01T09:34:14.965Z,83.50
2018-09-01T09:35:18.761Z,83.50
2018-09-01T09:36:22.669Z,82.90
2018-09-01T09:37:26.387Z,85.00
2018-09-01T09:38:30.413Z,86.30
2018-09-01T09:39:34.074Z,87.40
2018-09-01T09:40:37.943Z,87.60
2018-09-01T09:41:41.828Z,87.80
2018-09-01T09:42:46.140Z,88.00
2018-09-01T09:43:50.222Z,87.50
2018-09-01T09:44:54.942Z,88.30
2018-09-01T09:45:59.156Z,88.90
2018-09-01T09:47:02.965Z,86.90
2018-09-01T09:48:07.630Z,88.60
2018-09-01T09:49:11.576Z,88.80
2018-09-01T09:50:15.271Z,89.00
2018-09-01T09:51:19.062Z,88.70
2018-09-01T09:52:22.802Z,87.90
2018-09-01T09:53:26.513Z,90.00
2018-09-01T09:54:30.676Z,90.20
2018-09-01T09:55:34.356Z,90.90
2018-09-01T09:56:38.082Z,91.50
2018-09-01T09:57:41.966Z,91.60
2018-09-01T09:58:46.152Z,91.40
2018-09-01T09:59:50.015Z,91.00
2018-09-01T10:00:57.044Z,90.60
2018-09-01T10:02:02.802Z,90.30
2018-09-01T10:03:07.127Z,90.10
2018-09-01T10:04:11.740Z,88.80
2018-09-01T10:05:15.560Z,88.80
2018-09-01T10:06:19.337Z,88.70
2018-09-01T10:07:23.268Z,88.80
2018-09-01T10:08:27.106Z,89.00
2018-09-01T10:09:30.984Z,87.50
2018-09-01T10:10:35.286Z,88.50
2018-09-01T10:11:40.206Z,89.00
2018-09-01T10:12:44.388Z,89.40
2018-09-01T10:13:48.355Z,87.80
2018-09-01T10:14:52.609Z,86.70
2018-09-01T10:15:56.548Z,86.80
2018-09-01T10:17:00.782Z,88.10
2018-09-01T10:18:04.797Z,89.30
2018-09-01T10:19:10.980Z,90.00
2018-09-01T10:20:15.234Z,89.70
2018-09-01T10:21:19.654Z,89.50
2018-09-01T10:22:23.610Z,89.60
2018-09-01T10:23:27.756Z,90.00
2018-09-01T10:24:31.628Z,90.30
2018-09-01T10:25:35.257Z,88.90
2018-09-01T10:26:39.078Z,89.30
2018-09-01T10:27:42.744Z,90.00
2018-09-01T10:28:46.665Z,90.50
2018-09-01T10:29:50.395Z,90.80
2018-09-01T10:30:54.134Z,91.00
2018-09-01T10:31:58.674Z,91.30
2018-09-01T10:33:03.135Z,91.80
2018-09-01T10:34:06.945Z,90.90
2018-09-01T10:35:11.460Z,91.10
2018-09-01T10:36:15.657Z,91.10
2018-09-01T10:37:19.923Z,91.80
2018-09-01T10:38:24.733Z,91.30
2018-09-01T10:39:28.466Z,91.60
2018-09-01T10:40:32.610Z,92.10
2018-09-01T10:41:36.538Z,91.90
2018-09-01T10:42:40.391Z,92.20
2018-09-01T10:43:44.184Z,92.00
2018-09-01T10:44:48.734Z,91.90
2018-09-01T10:45:52.675Z,92.10
2018-09-01T10:46:56.319Z,92.30
2018-09-01T10:48:00.128Z,92.30
2018-09-01T10:49:04.016Z,92.10
2018-09-01T10:50:07.810Z,92.10
2018-09-01T10:51:12.270Z,91.80
2018-09-01T10:52:16.416Z,91.90
2018-09-01T10:53:20.324Z,91.90
2018-09-01T10:54:24.558Z,92.00
2018-09-01T10:55:28.916Z,92.00
2018-09-01T10:56:32.835Z,92.10
2018-09-01T10:57:36.622Z,92.00
2018-09-01T10:58:40.338Z,92.00
2018-09-01T10:59:44.305Z,91.60
2018-09-01T11:00:48.382Z,91.20
2018-09-01T11:01:52.094Z,91.30
2018-09-01T11:02:55.790Z,91.80
2018-09-01T11:03:59.505Z,91.90
2018-09-01T11:05:03.565Z,91.80
2018-09-01T11:06:07.182Z,92.10
2018-09-01T11:07:11.112Z,92.40
2018-09-01T11:08:14.799Z,92.60
2018-09-01T11:09:18.548Z,92.80
2018-09-01T11:10:22.247Z,93.00
2018-09-01T11:11:26.060Z,93.00
2018-09-01T11:12:29.825Z,93.20
2018-09-01T11:13:33.691Z,93.50
2018-09-01T11:14:37.601Z,93.80
2018-09-01T11:15:41.441Z,93.60
2018-09-01T11:16:45.238Z,93.80
2018-09-01T11:17:48.929Z,94.00
2018-09-01T11:18:52.690Z,94.20
2018-09-01T11:19:56.738Z,94.10
2018-09-01T11:21:00.578Z,94.10
2018-09-01T11:22:04.257Z,94.10
2018-09-01T11:23:08.027Z,94.00
2018-09-01T11:24:12.341Z,93.50
2018-09-01T11:25:16.808Z,93.70
2018-09-01T11:26:20.626Z,93.00
2018-09-01T11:27:25.107Z,92.70
2018-09-01T11:28:28.824Z,92.50
2018-09-01T11:29:32.757Z,92.30
2018-09-01T11:30:37.115Z,92.10
2018-09-01T11:31:40.724Z,91.60
2018-09-01T11:32:44.618Z,91.60
2018-09-01T11:33:48.616Z,89.30
2018-09-01T11:34:52.426Z,88.40
2018-09-01T11:35:56.251Z,89.30
2018-09-01T11:37:00.098Z,89.10
2018-09-01T11:38:04.378Z,88.80
2018-09-01T11:39:10.159Z,88.50
2018-09-01T11:40:14.081Z,87.90
2018-09-01T11:41:17.828Z,87.80
2018-09-01T11:42:21.806Z,87.80
2018-09-01T11:43:25.398Z,89.40
2018-09-01T11:44:29.125Z,88.20
2018-09-01T11:45:32.802Z,87.90
2018-09-01T11:46:37.477Z,88.20
2018-09-01T11:47:41.374Z,88.50
2018-09-01T11:48:44.972Z,88.20
2018-09-01T11:49:48.648Z,88.70
2018-09-01T11:50:52.277Z,87.50
2018-09-01T11:51:56.228Z,87.20
2018-09-01T11:52:59.948Z,87.80
2018-09-01T11:54:03.526Z,88.10
2018-09-01T11:55:07.928Z,88.80
2018-09-01T11:56:11.938Z,87.00
2018-09-01T11:57:15.747Z,86.80
2018-09-01T11:58:19.834Z,84.60
2018-09-01T11:59:23.570Z,82.40
2018-09-01T12:00:27.350Z,81.90
2018-09-01T12:01:31.269Z,82.20
2018-09-01T12:02:35.712Z,83.40
2018-09-01T12:03:39.698Z,83.90
2018-09-01T12:04:43.704Z,83.70
2018-09-01T12:05:47.572Z,83.50
2018-09-01T12:06:52.343Z,84.00
2018-09-01T12:07:56.416Z,85.00
2018-09-01T12:09:00.809Z,86.10
2018-09-01T12:10:06.670Z,85.80
2018-09-01T12:11:10.626Z,84.20
2018-09-01T12:12:14.397Z,82.90
2018-09-01T12:13:19.591Z,83.70
2018-09-01T12:14:23.598Z,84.70
2018-09-01T12:15:27.376Z,85.20
2018-09-01T12:16:31.179Z,85.40
2018-09-01T12:17:35.206Z,86.50
2018-09-01T12:18:38.933Z,87.10
2018-09-01T12:19:42.648Z,88.50
2018-09-01T12:20:46.382Z,87.80
2018-09-01T12:21:50.293Z,88.60
2018-09-01T12:22:54.138Z,88.50
2018-09-01T12:23:57.955Z,89.10
2018-09-01T12:25:02.281Z,89.70
2018-09-01T12:26:06.123Z,90.40
2018-09-01T12:27:10.217Z,90.60
2018-09-01T12:28:14.276Z,90.70
2018-09-01T12:29:17.925Z,90.60
2018-09-01T12:30:21.827Z,90.70
2018-09-01T12:31:26.112Z,91.00
2018-09-01T12:32:29.865Z,91.40
2018-09-01T12:33:33.887Z,90.90
2018-09-01T12:34:38.027Z,91.20
2018-09-01T12:35:42.119Z,91.60
2018-09-01T12:36:45.973Z,91.20
2018-09-01T12:37:50.081Z,90.50
2018-09-01T12:38:54.366Z,90.80
2018-09-01T12:39:58.085Z,91.30
2018-09-01T12:41:01.979Z,91.00
2018-09-01T12:42:05.772Z,91.00
2018-09-01T12:43:09.717Z,91.40
2018-09-01T12:44:14.491Z,90.70
2018-09-01T12:45:18.456Z,90.30
2018-09-01T12:46:22.301Z,90.10
2018-09-01T12:47:25.959Z,90.50
2018-09-01T12:48:29.704Z,91.20
2018-09-01T12:49:33.557Z,91.20
2018-09-01T12:50:37.884Z,91.20
2018-09-01T12:51:41.616Z,91.10
2018-09-01T12:52:45.373Z,91.60
2018-09-01T12:53:49.399Z,91.80
2018-09-01T12:54:53.270Z,90.90
2018-09-01T12:55:57.328Z,90.80
2018-09-01T12:57:01.037Z,90.80
2018-09-01T12:58:04.704Z,90.50
2018-09-01T12:59:08.889Z,90.40
2018-09-01T13:00:13.129Z,90.60
2018-09-01T13:01:16.985Z,91.10
2018-09-01T13:02:22.253Z,90.90
2018-09-01T13:03:25.925Z,90.80
2018-09-01T13:04:29.647Z,90.70
2018-09-01T13:05:33.837Z,90.60
2018-09-01T13:06:38.374Z,90.50
2018-09-01T13:07:42.385Z,90.50
2018-09-01T13:08:46.488Z,90.50
2018-09-01T13:09:50.222Z,90.20
2018-09-01T13:10:54.399Z,90.50
2018-09-01T13:11:58.256Z,90.00
2018-09-01T13:13:01.991Z,89.80
2018-09-01T13:14:05.671Z,90.10
2018-09-01T13:15:09.673Z,90.10
2018-09-01T13:16:14.106Z,89.10
2018-09-01T13:17:17.865Z,88.70
2018-09-01T13:18:22.535Z,88.50
2018-09-01T13:19:27.382Z,89.60
2018-09-01T13:20:31.284Z,89.60
2018-09-01T13:21:35.059Z,90.00
2018-09-01T13:22:39.521Z,90.50
2018-09-01T13:23:44.314Z,90.80
2018-09-01T13:24:48.183Z,91.10
2018-09-01T13:25:52.052Z,91.20
2018-09-01T13:26:56.134Z,91.30
2018-09-01T13:28:00.178Z,91.60
2018-09-01T13:29:03.926Z,91.20
2018-09-01T13:30:07.827Z,91.70
2018-09-01T13:31:12.021Z,91.70
2018-09-01T13:32:15.817Z,91.90
2018-09-01T13:33:19.661Z,91.90
2018-09-01T13:34:23.747Z,92.00
2018-09-01T13:35:27.372Z,92.20
2018-09-01T13:36:31.165Z,91.90
2018-09-01T13:37:35.104Z,92.30
2018-09-01T13:38:39.379Z,92.90
2018-09-01T13:39:43.056Z,92.50
2018-09-01T13:40:46.968Z,92.50
2018-09-01T13:41:50.643Z,92.70
2018-09-01T13:42:54.447Z,91.90
2018-09-01T13:43:58.545Z,91.70
2018-09-01T13:45:03.633Z,92.30
2018-09-01T13:46:07.557Z,91.20
2018-09-01T13:47:11.912Z,90.80
2018-09-01T13:48:15.666Z,90.70
2018-09-01T13:49:19.465Z,90.50
2018-09-01T13:50:23.188Z,90.60
2018-09-01T13:51:27.387Z,91.20
2018-09-01T13:52:31.271Z,91.20
2018-09-01T13:53:34.988Z,91.00
2018-09-01T13:54:38.921Z,91.00
2018-09-01T13:55:42.770Z,91.10
2018-09-01T13:56:46.617Z,91.10
2018-09-01T13:57:50.406Z,90.20
2018-09-01T13:58:54.311Z,90.60
2018-09-01T13:59:58.052Z,90.20
2018-09-01T14:01:02.677Z,90.50
2018-09-01T14:02:06.532Z,90.50
2018-09-01T14:03:10.279Z,90.70
2018-09-01T14:04:14.449Z,90.40
2018-09-01T14:05:18.129Z,90.50
2018-09-01T14:06:22.110Z,89.70
2018-09-01T14:07:25.928Z,89.60
2018-09-01T14:08:29.750Z,88.80
2018-09-01T14:09:33.573Z,89.60
2018-09-01T14:10:37.696Z,88.70
2018-09-01T14:11:41.459Z,89.10
2018-09-01T14:12:45.427Z,89.80
2018-09-01T14:13:49.373Z,88.60
2018-09-01T14:14:53.567Z,88.10
2018-09-01T14:15:57.046Z,88.60
2018-09-01T14:17:01.015Z,88.10
2018-09-01T14:18:04.921Z,87.40
2018-09-01T14:19:09.267Z,87.90